Time;durP1;ratioP1;P1;durP2;ratioP2;P2;SDS_P1;SDS_P2;PMS_P1;PMS_P2;Temp;Humidity;BMP_temperature;BMP_pressure;BME280_temperature;BME280_humidity;BME280_pressure;Samples;Min_cycle;Max_cycle;Signal;HPM_P1;HPM_P2
2023/06/14 11:29:07;;;;;;;;;;;;;;;;;;6187147;22;1965587;-77
2023/06/14 11:31:33;;;;;;;;;;;;;;;;;;6201411;23;19924;-77
2023/06/14 11:33:59;;;;;;;;;;;;;;;;;;6199824;23;19930;-76
2023/06/14 11:36:26;;;;;;;;;;;;;;;;;;6198894;23;20343;-76
2023/06/14 11:38:52;;;;;;;;;;;;;;;;;;6199534;23;20351;-77
2023/06/14 11:41:18;;;;;;;;;;;;;;;;;;6199561;23;19951;-78
2023/06/14 11:43:44;;;;;;;;;;;;;;;;;;6197331;23;19987;-79
2023/06/14 11:46:11;;;;;;;;;;;;;;;;;;6197761;23;20043;-79
2023/06/14 11:48:37;;;;;;;;;;;;;;;;;;6198246;23;19924;-79
2023/06/14 11:51:03;;;;;;;;;;;;;;;;;;6197373;23;19926;-81
2023/06/14 11:53:30;;;;;;;;;;;;;;;;;;6197873;23;19986;-80
2023/06/14 11:55:56;;;;;;;;;;;;;;;;;;6196525;23;19982;-75
2023/06/14 11:58:22;;;;;;;;;;;;;;;;;;6198715;23;20331;-79
2023/06/14 12:00:48;;;;;;;;;;;;;;;;;;6198280;23;19919;-78
2023/06/14 12:03:14;;;;;;;;;;;;;;;;;;6172945;23;20338;-79
2023/06/14 12:05:40;;;;;;;;;;;;;;;;;;6198807;23;20414;-85
2023/06/14 12:08:07;;;;;;;;;;;;;;;;;;6173736;23;20349;-83
2023/06/14 12:10:33;;;;;;;;;;;;;;;;;;6199373;23;19927;-83
2023/06/14 12:12:59;;;;;;;;;;;;;;;;;;6196712;23;19923;-81
2023/06/14 12:15:25;;;;;;;;;;;;;;;;;;6198499;23;19920;-81
2023/06/14 12:17:52;;;;;;;;;;;;;;;;;;6201123;23;20429;-82
2023/06/14 12:20:21;;;;;;;;;;;;;;;;;;6198108;23;19991;-81
2023/06/14 12:22:48;;;;;;;;;;;;;;;;;;6197857;23;19935;-82
2023/06/14 12:25:14;;;;;;;;;;;;;;;;;;6202326;23;20010;-78
2023/06/14 12:27:40;;;;;;;;;;;;;;;;;;6198770;23;20023;-80
2023/06/14 12:30:07;;;;;;;;;;;;;;;;;;6198654;23;19998;-80
2023/06/14 12:32:33;;;;;;;;;;;;;;;;;;6198345;23;20013;-79
2023/06/14 12:34:59;;;;;;;;;;;;;;;;;;6198115;23;19924;-80
2023/06/14 12:37:25;;;;;;;;;;;;;;;;;;6198376;23;19931;-81
2023/06/14 12:39:51;;;;;;;;;;;;;;;;;;6198372;23;19926;-80
2023/06/14 12:42:17;;;;;;;;;;;;;;;;;;6200230;23;19935;-79
2023/06/14 12:44:43;;;;;;;;;;;;;;;;;;6199507;23;19920;-79
2023/06/14 12:47:09;;;;;;;;;;;;;;;;;;6201162;23;19920;-80
2023/06/14 12:49:35;;;;;;;;;;;;;;;;;;6201999;23;19919;-80
2023/06/14 12:52:01;;;;;;;;;;;;;;;;;;6203156;23;19924;-80
2023/06/14 12:54:27;;;;;;;;;;;;;;;;;;6177044;23;20464;-80
2023/06/14 12:56:54;;;;;;;;;;;;;;;;;;6177972;23;19927;-80
2023/06/14 12:59:20;;;;;;;;;;;;;;;;;;6203254;23;20703;-79
2023/06/14 13:01:49;;;;;;;;;;;;;;;;;;6203492;23;19987;-80
2023/06/14 13:04:15;;;;;;;;;;;;;;;;;;6204132;23;20021;-80
2023/06/14 13:06:41;;;;;;;;;;;;;;;;;;6201906;23;19924;-81
2023/06/14 13:09:07;;;;;;;;;;;;;;;;;;6203648;23;19923;-79
2023/06/14 13:11:33;;;;;;;;;;;;;;;;;;6203637;23;20335;-80
2023/06/14 13:13:59;;;;;;;;;;;;;;;;;;6205033;23;19971;-80
2023/06/14 13:16:25;;;;;;;;;;;;;;;;;;6203218;23;19991;-80
2023/06/14 13:18:51;;;;;;;;;;;;;;;;;;6203891;23;20414;-80
2023/06/14 13:21:17;;;;;;;;;;;;;;;;;;6202947;23;19966;-79
2023/06/14 13:23:43;;;;;;;;;;;;;;;;;;6203847;23;20395;-79
2023/06/14 13:26:09;;;;;;;;;;;;;;;;;;6204127;23;19980;-80
2023/06/14 13:28:35;;;;;;;;;;;;;;;;;;6202439;23;20287;-81
2023/06/14 13:31:01;;;;;;;;;;;;;;;;;;6202988;23;19920;-81
2023/06/14 13:33:27;;;;;;;;;;;;;;;;;;6203193;23;19955;-80
2023/06/14 13:35:54;;;;;;;;;;;;;;;;;;6202065;23;20394;-77
2023/06/14 13:38:20;;;;;;;;;;;;;;;;;;6202700;23;20283;-78
2023/06/14 13:40:46;;;;;;;;;;;;;;;;;;6204278;23;19920;-78
2023/06/14 13:43:11;;;;;;;;;;;;;;;;;;6176507;23;19931;-78
2023/06/14 13:45:38;;;;;;;;;;;;;;;;;;6202414;23;19920;-81
2023/06/14 13:48:03;;;;;;;;;;;;;;;;;;6201331;23;19919;-81
2023/06/14 13:50:30;;;;;;;;;;;;;;;;;;6200973;23;20014;-82
2023/06/14 13:52:56;;;;;;;;;;;;;;;;;;6202266;23;19960;-82
2023/06/14 13:55:22;;;;;;;;;;;;;;;;;;6201946;23;19955;-81
2023/06/14 13:57:48;;;;;;;;;;;;;;;;;;6202202;23;19920;-82
2023/06/14 14:00:14;;;;;;;;;;;;;;;;;;6202204;23;19946;-81
2023/06/14 14:02:40;;;;;;;;;;;;;;;;;;6202276;23;19990;-81
2023/06/14 14:05:06;;;;;;;;;;;;;;;;;;6202303;23;19920;-81
2023/06/14 14:07:32;;;;;;;;;;;;;;;;;;6203474;23;19926;-82
2023/06/14 14:09:58;;;;;;;;;;;;;;;;;;6204432;23;19919;-81
2023/06/14 14:12:25;;;;;;;;;;;;;;;;;;6201878;23;19923;-81
2023/06/14 14:14:51;;;;;;;;;;;;;;;;;;6200680;23;20354;-80
2023/06/14 14:17:17;;;;;;;;;;;;;;;;;;6198932;23;19924;-80
2023/06/14 14:19:43;;;;;;;;;;;;;;;;;;6200380;23;19920;-81
2023/06/14 14:22:09;;;;;;;;;;;;;;;;;;6200649;23;19930;-80
2023/06/14 14:24:35;;;;;;;;;;;;;;;;;;6199935;23;19962;-79
2023/06/14 14:27:01;;;;;;;;;;;;;;;;;;6199738;23;19920;-80
2023/06/14 14:29:29;;;;;;;;;;;;;;;;;;6200073;23;19999;-81
2023/06/14 14:31:55;;;;;;;;;;;;;;;;;;6199741;23;19947;-81
2023/06/14 14:34:21;;;;;;;;;;;;;;;;;;6199248;23;20010;-80
2023/06/14 14:36:47;;;;;;;;;;;;;;;;;;6199535;23;19954;-81
2023/06/14 14:39:13;;;;;;;;;;;;;;;;;;6199910;23;19951;-80
2023/06/14 14:41:39;;;;;;;;;;;;;;;;;;6199473;23;19926;-80
2023/06/14 14:44:05;;;;;;;;;;;;;;;;;;6200323;23;20256;-80
2023/06/14 14:46:31;;;;;;;;;;;;;;;;;;6199358;23;20364;-80
2023/06/14 14:48:57;;;;;;;;;;;;;;;;;;6199785;23;19920;-81
2023/06/14 14:51:23;;;;;;;;;;;;;;;;;;6199170;23;20331;-81
2023/06/14 14:53:49;;;;;;;;;;;;;;;;;;6198407;23;19952;-82
